createdAt,value
2023-02-08T00:00:39.433Z,103826.00
2023-02-08T00:03:06.381Z,103822.00
2023-02-08T00:05:33.403Z,103822.00
2023-02-08T00:08:00.054Z,103822.00
2023-02-08T00:10:26.735Z,103820.00
2023-02-08T00:12:53.333Z,103816.00
2023-02-08T00:15:20.161Z,103818.00
2023-02-08T00:17:46.853Z,103818.00
2023-02-08T00:20:13.973Z,103817.00
2023-02-08T00:22:40.650Z,103822.00
2023-02-08T00:25:08.262Z,103822.00
2023-02-08T00:27:34.943Z,103819.00
2023-02-08T00:30:01.659Z,103814.00
2023-02-08T00:32:28.328Z,103811.00
2023-02-08T00:34:55.012Z,103815.00
2023-02-08T00:37:21.641Z,103811.00
2023-02-08T00:39:48.367Z,103809.00
2023-02-08T00:42:14.973Z,103814.00
2023-02-08T00:44:41.553Z,103811.00
2023-02-08T00:47:08.191Z,103815.00
2023-02-08T00:49:34.987Z,103811.00
2023-02-08T00:52:01.647Z,103799.00
2023-02-08T00:54:28.258Z,103799.00
2023-02-08T00:56:54.918Z,103792.00
2023-02-08T00:59:21.612Z,103798.00
2023-02-08T01:01:48.457Z,103797.00
2023-02-08T01:04:15.170Z,103798.00
2023-02-08T01:06:41.862Z,103798.00
2023-02-08T01:09:08.519Z,103804.00
2023-02-08T01:11:35.281Z,103799.00
2023-02-08T01:14:02.086Z,103801.00
2023-02-08T01:16:31.665Z,103799.00
2023-02-08T01:19:00.329Z,103798.00
2023-02-08T01:21:30.757Z,103799.00
2023-02-08T01:23:57.694Z,103800.00
2023-02-08T01:26:25.982Z,103796.00
2023-02-08T01:28:53.749Z,103806.00
2023-02-08T01:31:28.071Z,103805.00
2023-02-08T01:33:55.866Z,103811.00
2023-02-08T01:36:22.970Z,103806.00
2023-02-08T01:38:49.757Z,103814.00
2023-02-08T01:41:30.586Z,103804.00
2023-02-08T01:44:12.268Z,103799.00
2023-02-08T01:46:41.378Z,103800.00
2023-02-08T01:49:28.409Z,103799.00
2023-02-08T01:52:13.756Z,103799.00
2023-02-08T01:54:49.973Z,103798.00
2023-02-08T01:57:17.132Z,103803.00
2023-02-08T01:59:52.669Z,103795.00
2023-02-08T02:02:22.131Z,103800.00
2023-02-08T02:04:50.398Z,103802.00
2023-02-08T02:07:19.115Z,103802.00
2023-02-08T02:09:53.143Z,103783.00
2023-02-08T02:12:21.235Z,103784.00
2023-02-08T02:14:48.109Z,103784.00
2023-02-08T02:17:18.436Z,103777.00
2023-02-08T02:20:03.616Z,103779.00
2023-02-08T02:22:39.284Z,103771.00
2023-02-08T02:25:33.059Z,103765.00
2023-02-08T02:28:30.593Z,103762.00
2023-02-08T02:31:15.477Z,103774.00
2023-02-08T02:34:10.080Z,103783.00
2023-02-08T02:36:39.313Z,103777.00
2023-02-08T02:39:15.870Z,103783.00
2023-02-08T02:42:25.831Z,103786.00
2023-02-08T02:45:26.869Z,103793.00
2023-02-08T02:48:10.416Z,103787.00
2023-02-08T02:50:52.356Z,103781.00
2023-02-08T02:53:34.049Z,103776.00
2023-02-08T02:56:12.411Z,103781.00
2023-02-08T02:58:41.061Z,103787.00
2023-02-08T03:01:07.843Z,103773.00
2023-02-08T03:03:35.369Z,103782.00
2023-02-08T03:06:09.654Z,103782.00
2023-02-08T03:08:56.633Z,103778.00
2023-02-08T03:11:26.777Z,103778.00
2023-02-08T03:14:18.178Z,103775.00
2023-02-08T03:17:03.097Z,103765.00
2023-02-08T03:19:41.242Z,103769.00
2023-02-08T03:22:21.190Z,103776.00
2023-02-08T03:25:03.763Z,103767.00
2023-02-08T03:27:44.835Z,103764.00
2023-02-08T03:30:28.570Z,103765.00
2023-02-08T03:33:06.884Z,103771.00
2023-02-08T03:35:52.405Z,103771.00
2023-02-08T03:38:37.759Z,103764.00
2023-02-08T03:41:07.613Z,103757.00
2023-02-08T03:43:45.001Z,103759.00
2023-02-08T03:46:18.929Z,103756.00
2023-02-08T03:48:54.755Z,103758.00
2023-02-08T03:51:23.291Z,103764.00
2023-02-08T03:53:53.743Z,103756.00
2023-02-08T03:56:28.815Z,103757.00
2023-02-08T03:59:02.912Z,103754.00
2023-02-08T04:01:33.662Z,103755.00
2023-02-08T04:04:01.202Z,103747.00
2023-02-08T04:06:28.106Z,103741.00
2023-02-08T04:08:56.164Z,103747.00
2023-02-08T04:11:22.817Z,103747.00
2023-02-08T04:13:49.448Z,103747.00
2023-02-08T04:16:16.079Z,103745.00
2023-02-08T04:18:43.180Z,103741.00
2023-02-08T04:21:09.827Z,103744.00
2023-02-08T04:23:36.506Z,103738.00
2023-02-08T04:26:04.190Z,103726.00
2023-02-08T04:28:31.010Z,103733.00
2023-02-08T04:30:58.117Z,103728.00
2023-02-08T04:33:24.955Z,103732.00
2023-02-08T04:35:52.278Z,103737.00
2023-02-08T04:38:19.051Z,103743.00
2023-02-08T04:40:45.683Z,103739.00
2023-02-08T04:43:12.342Z,103738.00
2023-02-08T04:45:39.044Z,103729.00
2023-02-08T04:48:07.438Z,103738.00
2023-02-08T04:50:35.128Z,103731.00
2023-02-08T04:53:01.926Z,103730.00
2023-02-08T04:55:28.650Z,103723.00
2023-02-08T04:57:55.326Z,103726.00
2023-02-08T05:00:22.033Z,103717.00
2023-02-08T05:02:52.137Z,103728.00
2023-02-08T05:05:18.933Z,103727.00
2023-02-08T05:07:45.710Z,103723.00
2023-02-08T05:10:12.364Z,103713.00
2023-02-08T05:12:39.058Z,103714.00
2023-02-08T05:15:05.851Z,103711.00
2023-02-08T05:17:32.503Z,103715.00
2023-02-08T05:19:59.219Z,103724.00
2023-02-08T05:22:26.011Z,103710.00
2023-02-08T05:24:52.699Z,103709.00
2023-02-08T05:27:19.331Z,103713.00
2023-02-08T05:29:46.000Z,103712.00
2023-02-08T05:32:12.891Z,103714.00
2023-02-08T05:34:39.811Z,103709.00
2023-02-08T05:37:06.502Z,103707.00
2023-02-08T05:39:33.146Z,103713.00
2023-02-08T05:41:59.781Z,103716.00
2023-02-08T05:44:26.476Z,103712.00
2023-02-08T05:46:53.177Z,103715.00
2023-02-08T05:49:19.900Z,103707.00
2023-02-08T05:51:46.699Z,103701.00
2023-02-08T05:54:13.315Z,103708.00
2023-02-08T05:56:40.009Z,103712.00
2023-02-08T05:59:06.652Z,103706.00
2023-02-08T06:01:33.357Z,103705.00
2023-02-08T06:04:00.644Z,103715.00
2023-02-08T06:06:28.177Z,103715.00
2023-02-08T06:08:55.193Z,103707.00
2023-02-08T06:11:22.189Z,103701.00
2023-02-08T06:13:48.883Z,103704.00
2023-02-08T06:16:17.209Z,103702.00
2023-02-08T06:18:45.651Z,103711.00
2023-02-08T06:21:12.897Z,103713.00
2023-02-08T06:23:39.577Z,103709.00
2023-02-08T06:26:06.186Z,103712.00
2023-02-08T06:28:33.004Z,103711.00
2023-02-08T06:30:59.766Z,103703.00
2023-02-08T06:33:26.492Z,103708.00
2023-02-08T06:35:53.535Z,103717.00
2023-02-08T06:38:20.655Z,103711.00
2023-02-08T06:40:48.249Z,103718.00
2023-02-08T06:43:16.279Z,103712.00
2023-02-08T06:45:46.391Z,103710.00
2023-02-08T06:48:13.869Z,103707.00
2023-02-08T06:50:40.707Z,103705.00
2023-02-08T06:53:07.521Z,103698.00
2023-02-08T06:55:34.324Z,103709.00
2023-02-08T06:58:01.060Z,103705.00
2023-02-08T07:00:27.873Z,103710.00
2023-02-08T07:02:54.593Z,103713.00
2023-02-08T07:05:21.298Z,103711.00
2023-02-08T07:07:48.876Z,103708.00
2023-02-08T07:10:16.284Z,103706.00
2023-02-08T07:12:43.110Z,103702.00
2023-02-08T07:15:13.236Z,103708.00
2023-02-08T07:17:40.303Z,103707.00
2023-02-08T07:20:08.703Z,103701.00
2023-02-08T07:22:35.336Z,103706.00
2023-02-08T07:25:01.981Z,103699.00
2023-02-08T07:27:28.862Z,103692.00
2023-02-08T07:29:55.664Z,103685.00
2023-02-08T07:32:22.461Z,103689.00
2023-02-08T07:34:49.149Z,103694.00
2023-02-08T07:37:16.180Z,103700.00
2023-02-08T07:39:42.835Z,103696.00
2023-02-08T07:42:09.969Z,103693.00
2023-02-08T07:44:40.074Z,103697.00
2023-02-08T07:47:07.512Z,103693.00
2023-02-08T07:49:34.502Z,103681.00
2023-02-08T07:52:01.678Z,103691.00
2023-02-08T07:54:29.047Z,103694.00
2023-02-08T07:56:56.248Z,103692.00
2023-02-08T07:59:23.057Z,103686.00
2023-02-08T08:01:49.797Z,103688.00
2023-02-08T08:04:16.711Z,103683.00
2023-02-08T08:06:43.322Z,103680.00
2023-02-08T08:09:10.061Z,103684.00
2023-02-08T08:11:36.692Z,103681.00
2023-02-08T08:14:03.447Z,103679.00
2023-02-08T08:16:30.104Z,103675.00
2023-02-08T08:18:56.939Z,103670.00
2023-02-08T08:21:23.713Z,103668.00
2023-02-08T08:23:51.168Z,103670.00
2023-02-08T08:26:20.387Z,103672.00
2023-02-08T08:28:47.932Z,103673.00
2023-02-08T08:31:19.277Z,103673.00
2023-02-08T08:33:46.496Z,103677.00
2023-02-08T08:36:13.421Z,103670.00
2023-02-08T08:38:41.080Z,103672.00
2023-02-08T08:41:14.847Z,103679.00
2023-02-08T08:43:41.596Z,103677.00
2023-02-08T08:46:09.527Z,103677.00
2023-02-08T08:48:37.113Z,103674.00
2023-02-08T08:51:04.022Z,103666.00
2023-02-08T08:53:30.886Z,103668.00
2023-02-08T08:55:57.688Z,103672.00
2023-02-08T08:58:24.518Z,103673.00
2023-02-08T09:00:51.214Z,103679.00
2023-02-08T09:03:17.910Z,103681.00
2023-02-08T09:05:44.447Z,103684.00
2023-02-08T09:08:11.131Z,103686.00
2023-02-08T09:10:37.729Z,103678.00
2023-02-08T09:13:04.357Z,103682.00
2023-02-08T09:15:31.002Z,103680.00
2023-02-08T09:17:57.603Z,103687.00
2023-02-08T09:20:24.251Z,103686.00
2023-02-08T09:22:50.978Z,103681.00
2023-02-08T09:25:17.691Z,103692.00
2023-02-08T09:27:44.376Z,103686.00
2023-02-08T09:30:11.493Z,103685.00
2023-02-08T09:32:39.919Z,103693.00
2023-02-08T09:35:07.725Z,103694.00
2023-02-08T09:37:34.688Z,103687.00
2023-02-08T09:40:01.757Z,103687.00
2023-02-08T09:42:37.329Z,103693.00
2023-02-08T09:45:30.919Z,103687.00
2023-02-08T09:48:03.882Z,103687.00
2023-02-08T09:50:44.949Z,103694.00
2023-02-08T09:53:15.512Z,103691.00
2023-02-08T09:55:49.426Z,103685.00
2023-02-08T09:58:23.309Z,103687.00
2023-02-08T10:00:51.657Z,103686.00
2023-02-08T10:03:29.478Z,103678.00
2023-02-08T10:05:56.496Z,103683.00
2023-02-08T10:08:31.532Z,103685.00
2023-02-08T10:11:35.992Z,103689.00
2023-02-08T10:14:25.436Z,103689.00
2023-02-08T10:17:11.065Z,103698.00
2023-02-08T10:19:43.716Z,103697.00
2023-02-08T10:22:21.995Z,103698.00
2023-02-08T10:24:57.390Z,103704.00
2023-02-08T10:27:56.277Z,103712.00
2023-02-08T10:31:04.056Z,103705.00
2023-02-08T10:34:00.089Z,103708.00
2023-02-08T10:36:35.355Z,103695.00
2023-02-08T10:39:04.943Z,103695.00
2023-02-08T10:41:36.011Z,103698.00
2023-02-08T10:44:17.229Z,103703.00
2023-02-08T10:47:15.058Z,103700.00
2023-02-08T10:49:47.665Z,103695.00
2023-02-08T10:52:14.362Z,103699.00
2023-02-08T10:54:41.160Z,103706.00
2023-02-08T10:57:17.813Z,103702.00
2023-02-08T10:59:58.712Z,103699.00
2023-02-08T11:02:33.389Z,103700.00
2023-02-08T11:05:07.794Z,103697.00
2023-02-08T11:07:36.459Z,103703.00
2023-02-08T11:10:23.513Z,103692.00
2023-02-08T11:13:03.797Z,103685.00
2023-02-08T11:15:47.678Z,103671.00
2023-02-08T11:18:24.615Z,103672.00
2023-02-08T11:20:55.273Z,103670.00
2023-02-08T11:23:38.077Z,103660.00
2023-02-08T11:26:17.367Z,103655.00
2023-02-08T11:28:45.165Z,103653.00
2023-02-08T11:31:20.126Z,103646.00
2023-02-08T11:34:02.236Z,103651.00
2023-02-08T11:36:32.642Z,103635.00
2023-02-08T11:39:03.104Z,103635.00
2023-02-08T11:41:30.728Z,103633.00
2023-02-08T11:44:02.899Z,103626.00
2023-02-08T11:46:33.284Z,103624.00
2023-02-08T11:49:00.033Z,103637.00
2023-02-08T11:51:34.827Z,103626.00
2023-02-08T11:54:02.540Z,103624.00
2023-02-08T11:56:34.227Z,103620.00
2023-02-08T11:59:03.887Z,103619.00
2023-02-08T12:01:38.989Z,103617.00
2023-02-08T12:04:10.033Z,103612.00
2023-02-08T12:06:40.692Z,103606.00
2023-02-08T12:09:43.651Z,103599.00
2023-02-08T12:12:19.267Z,103603.00
2023-02-08T12:14:45.917Z,103602.00
2023-02-08T12:17:23.693Z,103594.00
2023-02-08T12:20:04.894Z,103591.00
2023-02-08T12:22:31.818Z,103589.00
2023-02-08T12:25:20.934Z,103580.00
2023-02-08T12:28:17.143Z,103580.00
2023-02-08T12:31:11.522Z,103571.00
2023-02-08T12:33:43.890Z,103561.00
2023-02-08T12:36:10.667Z,103565.00
2023-02-08T12:39:19.132Z,103564.00
2023-02-08T12:42:07.979Z,103557.00
2023-02-08T12:44:37.331Z,103562.00
2023-02-08T12:47:23.326Z,103556.00
2023-02-08T12:50:12.158Z,103554.00
2023-02-08T12:52:42.659Z,103557.00
2023-02-08T12:55:21.582Z,103543.00
2023-02-08T12:57:53.190Z,103541.00
2023-02-08T13:00:22.933Z,103532.00
2023-02-08T13:03:07.055Z,103533.00
2023-02-08T13:06:01.328Z,103529.00
2023-02-08T13:08:50.710Z,103514.00
2023-02-08T13:11:26.366Z,103510.00
2023-02-08T13:14:01.388Z,103513.00
2023-02-08T13:16:34.891Z,103500.00
2023-02-08T13:19:01.572Z,103505.00
2023-02-08T13:21:41.021Z,103500.00
2023-02-08T13:24:22.963Z,103498.00
2023-02-08T13:26:49.722Z,103493.00
2023-02-08T13:29:19.542Z,103487.00
2023-02-08T13:32:00.688Z,103482.00
2023-02-08T13:34:51.968Z,103477.00
2023-02-08T13:37:26.244Z,103475.00
2023-02-08T13:40:06.546Z,103470.00
2023-02-08T13:42:48.755Z,103467.00
2023-02-08T13:45:30.896Z,103465.00
2023-02-08T13:48:00.731Z,103464.00
2023-02-08T13:50:42.979Z,103455.00
2023-02-08T13:53:10.141Z,103460.00
2023-02-08T13:55:52.253Z,103456.00
2023-02-08T13:58:37.473Z,103455.00
2023-02-08T14:01:24.291Z,103448.00
2023-02-08T14:04:12.261Z,103453.00
2023-02-08T14:06:51.959Z,103449.00
2023-02-08T14:09:29.874Z,103447.00
2023-02-08T14:12:02.629Z,103448.00
2023-02-08T14:14:40.546Z,103455.00
2023-02-08T14:17:28.421Z,103450.00
2023-02-08T14:20:25.835Z,103453.00
2023-02-08T14:22:58.697Z,103447.00
2023-02-08T14:25:41.720Z,103443.00
2023-02-08T14:28:28.201Z,103428.00
2023-02-08T14:30:58.103Z,103432.00
2023-02-08T14:33:34.894Z,103429.00
2023-02-08T14:36:05.437Z,103426.00
2023-02-08T14:38:50.147Z,103418.00
2023-02-08T14:41:46.133Z,103413.00
2023-02-08T14:44:38.902Z,103409.00
2023-02-08T14:47:24.536Z,103404.00
2023-02-08T14:50:16.955Z,103398.00
2023-02-08T14:52:52.560Z,103389.00
2023-02-08T14:55:28.061Z,103387.00
2023-02-08T14:58:00.962Z,103381.00
2023-02-08T15:00:33.913Z,103383.00
2023-02-08T15:03:02.295Z,103371.00
2023-02-08T15:05:32.478Z,103373.00
2023-02-08T15:08:02.214Z,103371.00
2023-02-08T15:10:33.187Z,103366.00
2023-02-08T15:13:06.426Z,103362.00
2023-02-08T15:15:37.234Z,103369.00
2023-02-08T15:18:06.981Z,103362.00
2023-02-08T15:20:36.109Z,103360.00
2023-02-08T15:23:18.580Z,103361.00
2023-02-08T15:26:19.109Z,103354.00
2023-02-08T15:28:45.944Z,103357.00
2023-02-08T15:31:21.832Z,103358.00
2023-02-08T15:33:52.226Z,103349.00
2023-02-08T15:36:32.309Z,103345.00
2023-02-08T15:39:02.571Z,103343.00
2023-02-08T15:41:38.201Z,103333.00
2023-02-08T15:44:34.117Z,103339.00
2023-02-08T15:47:03.722Z,103335.00
2023-02-08T15:49:35.574Z,103343.00
2023-02-08T15:52:03.188Z,103340.00
2023-02-08T15:54:30.610Z,103347.00
2023-02-08T15:57:19.911Z,103341.00
2023-02-08T15:59:48.234Z,103328.00
2023-02-08T16:02:34.177Z,103328.00
2023-02-08T16:05:10.306Z,103325.00
2023-02-08T16:07:39.917Z,103331.00
2023-02-08T16:10:08.721Z,103322.00
2023-02-08T16:12:36.305Z,103324.00
2023-02-08T16:15:03.000Z,103319.00
2023-02-08T16:17:41.980Z,103316.00
2023-02-08T16:20:33.841Z,103317.00
2023-02-08T16:23:23.850Z,103322.00
2023-02-08T16:25:51.109Z,103319.00
2023-02-08T16:28:32.635Z,103322.00
2023-02-08T16:31:03.136Z,103325.00
2023-02-08T16:33:32.618Z,103320.00
2023-02-08T16:36:03.586Z,103313.00
2023-02-08T16:38:33.794Z,103310.00
2023-02-08T16:41:12.597Z,103314.00
2023-02-08T16:43:47.837Z,103306.00
2023-02-08T16:46:24.590Z,103304.00
2023-02-08T16:48:52.688Z,103306.00
2023-02-08T16:51:31.194Z,103308.00
2023-02-08T16:54:06.979Z,103302.00
2023-02-08T16:56:37.442Z,103305.00
2023-02-08T16:59:04.560Z,103293.00
2023-02-08T17:01:31.934Z,103302.00
2023-02-08T17:03:59.223Z,103296.00
2023-02-08T17:06:32.278Z,103288.00
2023-02-08T17:09:01.022Z,103282.00
2023-02-08T17:11:28.381Z,103284.00
2023-02-08T17:13:55.390Z,103291.00
2023-02-08T17:16:24.319Z,103288.00
2023-02-08T17:18:51.119Z,103283.00
2023-02-08T17:21:18.085Z,103277.00
2023-02-08T17:23:45.939Z,103270.00
2023-02-08T17:26:20.099Z,103268.00
2023-02-08T17:28:46.819Z,103268.00
2023-02-08T17:31:14.675Z,103280.00
2023-02-08T17:33:41.646Z,103271.00
2023-02-08T17:36:10.593Z,103279.00
2023-02-08T17:38:41.385Z,103265.00
2023-02-08T17:41:17.384Z,103271.00
2023-02-08T17:43:44.723Z,103263.00
2023-02-08T17:46:13.542Z,103257.00
2023-02-08T17:48:40.214Z,103257.00
2023-02-08T17:51:13.997Z,103264.00
2023-02-08T17:53:43.824Z,103266.00
2023-02-08T17:56:13.454Z,103268.00
2023-02-08T17:58:40.891Z,103268.00
2023-02-08T18:01:10.180Z,103268.00
2023-02-08T18:03:37.036Z,103278.00
2023-02-08T18:06:06.101Z,103274.00
2023-02-08T18:08:32.827Z,103279.00
2023-02-08T18:11:04.513Z,103267.00
2023-02-08T18:13:31.114Z,103269.00
2023-02-08T18:15:57.787Z,103268.00
2023-02-08T18:18:24.524Z,103267.00
2023-02-08T18:20:51.113Z,103265.00
2023-02-08T18:23:17.844Z,103268.00
2023-02-08T18:25:44.765Z,103277.00
2023-02-08T18:28:15.264Z,103272.00
2023-02-08T18:30:42.571Z,103267.00
2023-02-08T18:33:10.776Z,103270.00
2023-02-08T18:35:38.012Z,103269.00
2023-02-08T18:38:04.711Z,103268.00
2023-02-08T18:40:32.294Z,103264.00
2023-02-08T18:42:59.058Z,103263.00
2023-02-08T18:45:25.762Z,103263.00
2023-02-08T18:47:52.429Z,103258.00
2023-02-08T18:50:19.188Z,103253.00
2023-02-08T18:52:45.806Z,103258.00
2023-02-08T18:55:12.454Z,103258.00
2023-02-08T18:57:40.096Z,103255.00
2023-02-08T19:00:07.467Z,103258.00
2023-02-08T19:02:34.101Z,103261.00
2023-02-08T19:05:00.751Z,103258.00
2023-02-08T19:07:27.407Z,103262.00
2023-02-08T19:09:54.199Z,103268.00
2023-02-08T19:12:22.087Z,103261.00
2023-02-08T19:14:50.956Z,103264.00
2023-02-08T19:17:18.095Z,103258.00
2023-02-08T19:19:45.136Z,103256.00
2023-02-08T19:22:12.268Z,103264.00
2023-02-08T19:24:39.094Z,103268.00
2023-02-08T19:27:05.827Z,103258.00
2023-02-08T19:29:34.529Z,103261.00
2023-02-08T19:32:01.363Z,103248.00
2023-02-08T19:34:28.181Z,103254.00
2023-02-08T19:36:55.310Z,103239.00
2023-02-08T19:39:27.180Z,103246.00
2023-02-08T19:41:55.092Z,103236.00
2023-02-08T19:44:22.794Z,103240.00
2023-02-08T19:46:54.375Z,103240.00
2023-02-08T19:49:22.547Z,103245.00
2023-02-08T19:51:49.450Z,103235.00
2023-02-08T19:54:18.241Z,103246.00
2023-02-08T19:56:46.151Z,103238.00
2023-02-08T19:59:27.817Z,103232.00
2023-02-08T20:01:55.041Z,103229.00
2023-02-08T20:04:22.253Z,103224.00
2023-02-08T20:06:51.906Z,103231.00
2023-02-08T20:09:18.648Z,103235.00
2023-02-08T20:12:00.732Z,103242.00
2023-02-08T20:14:31.139Z,103237.00
2023-02-08T20:16:57.962Z,103241.00
2023-02-08T20:19:25.375Z,103237.00
2023-02-08T20:21:52.323Z,103241.00
2023-02-08T20:24:19.265Z,103232.00
2023-02-08T20:26:47.485Z,103230.00
2023-02-08T20:29:14.650Z,103230.00
2023-02-08T20:31:43.693Z,103230.00
2023-02-08T20:34:13.464Z,103223.00
2023-02-08T20:36:45.100Z,103235.00
2023-02-08T20:39:18.340Z,103226.00
2023-02-08T20:41:46.003Z,103224.00
2023-02-08T20:44:13.965Z,103228.00
2023-02-08T20:46:41.422Z,103228.00
2023-02-08T20:49:08.077Z,103226.00
2023-02-08T20:51:35.569Z,103218.00
2023-02-08T20:54:03.501Z,103222.00
2023-02-08T20:56:33.939Z,103223.00
2023-02-08T20:59:05.578Z,103220.00
2023-02-08T21:01:34.576Z,103222.00
2023-02-08T21:04:01.932Z,103219.00
2023-02-08T21:06:31.399Z,103212.00
2023-02-08T21:09:00.912Z,103221.00
2023-02-08T21:11:31.186Z,103220.00
2023-02-08T21:13:58.419Z,103227.00
2023-02-08T21:16:25.852Z,103225.00
2023-02-08T21:18:52.825Z,103225.00
2023-02-08T21:21:20.238Z,103225.00
2023-02-08T21:23:47.025Z,103230.00
2023-02-08T21:26:16.367Z,103226.00
2023-02-08T21:28:44.023Z,103221.00
2023-02-08T21:31:16.788Z,103218.00
2023-02-08T21:33:44.624Z,103212.00
2023-02-08T21:36:17.397Z,103209.00
2023-02-08T21:38:44.765Z,103207.00
2023-02-08T21:41:33.038Z,103206.00
2023-02-08T21:44:03.225Z,103200.00
2023-02-08T21:46:31.959Z,103203.00
2023-02-08T21:49:17.414Z,103194.00
2023-02-08T21:52:03.537Z,103196.00
2023-02-08T21:54:41.855Z,103200.00
2023-02-08T21:57:23.228Z,103200.00
2023-02-08T21:59:52.382Z,103196.00
2023-02-08T22:02:21.990Z,103193.00
2023-02-08T22:04:49.232Z,103195.00
2023-02-08T22:07:16.250Z,103196.00
2023-02-08T22:09:43.013Z,103198.00
2023-02-08T22:12:18.040Z,103203.00
2023-02-08T22:14:44.701Z,103197.00
2023-02-08T22:17:11.486Z,103200.00
2023-02-08T22:19:42.568Z,103203.00
2023-02-08T22:22:10.544Z,103186.00
2023-02-08T22:24:37.338Z,103191.00
2023-02-08T22:27:04.135Z,103195.00
2023-02-08T22:29:30.973Z,103193.00
2023-02-08T22:31:57.734Z,103199.00
2023-02-08T22:34:26.835Z,103193.00
2023-02-08T22:36:53.648Z,103198.00
2023-02-08T22:39:20.749Z,103198.00
2023-02-08T22:41:47.530Z,103201.00
2023-02-08T22:44:14.336Z,103202.00
2023-02-08T22:46:41.153Z,103198.00
2023-02-08T22:49:08.950Z,103202.00
2023-02-08T22:51:35.826Z,103203.00
2023-02-08T22:54:02.681Z,103193.00
2023-02-08T22:56:29.659Z,103200.00
2023-02-08T22:58:56.712Z,103197.00
2023-02-08T23:01:23.409Z,103193.00
2023-02-08T23:03:50.216Z,103199.00
2023-02-08T23:06:17.712Z,103190.00
2023-02-08T23:08:44.865Z,103197.00
2023-02-08T23:11:13.242Z,103200.00
2023-02-08T23:13:39.965Z,103198.00
2023-02-08T23:16:06.970Z,103186.00
2023-02-08T23:18:35.982Z,103181.00
2023-02-08T23:21:08.630Z,103176.00
2023-02-08T23:23:35.489Z,103181.00
2023-02-08T23:26:08.508Z,103179.00
2023-02-08T23:28:35.577Z,103173.00
2023-02-08T23:31:08.555Z,103167.00
2023-02-08T23:33:36.735Z,103174.00
2023-02-08T23:36:12.141Z,103174.00
2023-02-08T23:38:39.492Z,103173.00
2023-02-08T23:41:09.711Z,103167.00
2023-02-08T23:43:36.400Z,103170.00
2023-02-08T23:46:13.750Z,103174.00
2023-02-08T23:48:40.786Z,103166.00
2023-02-08T23:51:08.505Z,103168.00
2023-02-08T23:53:36.429Z,103167.00
2023-02-08T23:56:16.418Z,103168.00
2023-02-08T23:58:45.416Z,103169.00
